sensor_id;sensor_type;location;lat;lon;timestamp;P1;durP1;ratioP1;P2;durP2;ratioP2
54929;SDS011;40833;53.238;6.576;2023-01-26T00:01:08;36.27;;;14.13;;
54929;SDS011;40833;53.238;6.576;2023-01-26T00:03:34;40.60;;;15.63;;
54929;SDS011;40833;53.238;6.576;2023-01-26T00:06:04;35.73;;;14.47;;
54929;SDS011;40833;53.238;6.576;2023-01-26T00:08:34;36.87;;;14.80;;
54929;SDS011;40833;53.238;6.576;2023-01-26T00:11:12;41.37;;;16.53;;
54929;SDS011;40833;53.238;6.576;2023-01-26T00:13:39;37.87;;;15.33;;
54929;SDS011;40833;53.238;6.576;2023-01-26T00:16:09;37.27;;;14.93;;
54929;SDS011;40833;53.238;6.576;2023-01-26T00:18:37;39.13;;;15.48;;
54929;SDS011;40833;53.238;6.576;2023-01-26T00:21:04;39.20;;;15.03;;
54929;SDS011;40833;53.238;6.576;2023-01-26T00:23:31;38.90;;;15.90;;
54929;SDS011;40833;53.238;6.576;2023-01-26T00:25:58;43.37;;;16.30;;
54929;SDS011;40833;53.238;6.576;2023-01-26T00:28:24;45.97;;;16.97;;
54929;SDS011;40833;53.238;6.576;2023-01-26T00:30:50;35.67;;;15.03;;
54929;SDS011;40833;53.238;6.576;2023-01-26T00:33:15;43.60;;;16.57;;
54929;SDS011;40833;53.238;6.576;2023-01-26T00:35:41;38.53;;;14.90;;
54929;SDS011;40833;53.238;6.576;2023-01-26T00:38:11;46.53;;;17.07;;
54929;SDS011;40833;53.238;6.576;2023-01-26T00:40:38;41.33;;;15.63;;
54929;SDS011;40833;53.238;6.576;2023-01-26T00:43:04;51.97;;;17.73;;
54929;SDS011;40833;53.238;6.576;2023-01-26T00:45:30;49.50;;;17.87;;
54929;SDS011;40833;53.238;6.576;2023-01-26T00:47:55;45.40;;;17.90;;
54929;SDS011;40833;53.238;6.576;2023-01-26T00:50:21;45.73;;;16.97;;
54929;SDS011;40833;53.238;6.576;2023-01-26T00:52:47;47.07;;;16.93;;
54929;SDS011;40833;53.238;6.576;2023-01-26T00:55:12;44.50;;;16.13;;
54929;SDS011;40833;53.238;6.576;2023-01-26T00:57:38;46.27;;;16.33;;
54929;SDS011;40833;53.238;6.576;2023-01-26T01:00:04;49.43;;;17.80;;
54929;SDS011;40833;53.238;6.576;2023-01-26T01:02:30;46.70;;;16.37;;
54929;SDS011;40833;53.238;6.576;2023-01-26T01:04:56;48.00;;;18.03;;
54929;SDS011;40833;53.238;6.576;2023-01-26T01:07:22;47.67;;;17.00;;
54929;SDS011;40833;53.238;6.576;2023-01-26T01:09:48;50.40;;;17.37;;
54929;SDS011;40833;53.238;6.576;2023-01-26T01:12:14;48.63;;;17.87;;
54929;SDS011;40833;53.238;6.576;2023-01-26T01:14:40;46.20;;;16.57;;
54929;SDS011;40833;53.238;6.576;2023-01-26T01:17:05;44.90;;;16.87;;
54929;SDS011;40833;53.238;6.576;2023-01-26T01:19:31;51.60;;;17.13;;
54929;SDS011;40833;53.238;6.576;2023-01-26T01:21:57;45.83;;;17.27;;
54929;SDS011;40833;53.238;6.576;2023-01-26T01:24:22;47.17;;;16.33;;
54929;SDS011;40833;53.238;6.576;2023-01-26T01:26:48;48.07;;;18.00;;
54929;SDS011;40833;53.238;6.576;2023-01-26T01:29:14;46.77;;;16.33;;
54929;SDS011;40833;53.238;6.576;2023-01-26T01:31:39;46.63;;;16.80;;
54929;SDS011;40833;53.238;6.576;2023-01-26T01:34:07;49.73;;;17.67;;
54929;SDS011;40833;53.238;6.576;2023-01-26T01:36:33;43.47;;;16.20;;
54929;SDS011;40833;53.238;6.576;2023-01-26T01:38:58;49.20;;;16.87;;
54929;SDS011;40833;53.238;6.576;2023-01-26T01:41:25;44.00;;;16.13;;
54929;SDS011;40833;53.238;6.576;2023-01-26T01:44:09;42.30;;;15.77;;
54929;SDS011;40833;53.238;6.576;2023-01-26T01:46:42;55.43;;;16.53;;
54929;SDS011;40833;53.238;6.576;2023-01-26T01:52:01;35.13;;;14.60;;
54929;SDS011;40833;53.238;6.576;2023-01-26T01:54:53;39.00;;;15.03;;
54929;SDS011;40833;53.238;6.576;2023-01-26T01:57:27;41.97;;;14.67;;
54929;SDS011;40833;53.238;6.576;2023-01-26T02:00:01;42.30;;;14.97;;
54929;SDS011;40833;53.238;6.576;2023-01-26T02:02:31;37.27;;;14.27;;
54929;SDS011;40833;53.238;6.576;2023-01-26T02:04:59;40.73;;;15.47;;
54929;SDS011;40833;53.238;6.576;2023-01-26T02:07:31;41.27;;;15.17;;
54929;SDS011;40833;53.238;6.576;2023-01-26T02:09:57;39.17;;;15.07;;
54929;SDS011;40833;53.238;6.576;2023-01-26T02:12:43;40.00;;;14.90;;
54929;SDS011;40833;53.238;6.576;2023-01-26T02:15:10;45.47;;;15.43;;
54929;SDS011;40833;53.238;6.576;2023-01-26T02:17:36;42.80;;;14.20;;
54929;SDS011;40833;53.238;6.576;2023-01-26T02:22:39;42.53;;;13.80;;
54929;SDS011;40833;53.238;6.576;2023-01-26T02:28:09;44.40;;;15.03;;
54929;SDS011;40833;53.238;6.576;2023-01-26T02:30:35;39.37;;;14.73;;
54929;SDS011;40833;53.238;6.576;2023-01-26T02:33:01;38.97;;;14.50;;
54929;SDS011;40833;53.238;6.576;2023-01-26T02:35:27;44.33;;;14.37;;
54929;SDS011;40833;53.238;6.576;2023-01-26T02:37:52;41.33;;;14.93;;
54929;SDS011;40833;53.238;6.576;2023-01-26T02:40:29;42.37;;;14.97;;
54929;SDS011;40833;53.238;6.576;2023-01-26T02:43:01;41.33;;;15.10;;
54929;SDS011;40833;53.238;6.576;2023-01-26T02:45:27;44.03;;;15.67;;
54929;SDS011;40833;53.238;6.576;2023-01-26T02:47:55;38.97;;;14.37;;
54929;SDS011;40833;53.238;6.576;2023-01-26T02:50:22;46.43;;;15.77;;
54929;SDS011;40833;53.238;6.576;2023-01-26T02:52:47;42.03;;;14.80;;
54929;SDS011;40833;53.238;6.576;2023-01-26T02:55:13;39.77;;;14.50;;
54929;SDS011;40833;53.238;6.576;2023-01-26T02:57:49;39.60;;;14.20;;
54929;SDS011;40833;53.238;6.576;2023-01-26T03:02:44;40.57;;;14.43;;
54929;SDS011;40833;53.238;6.576;2023-01-26T03:05:12;42.40;;;14.30;;
54929;SDS011;40833;53.238;6.576;2023-01-26T03:07:38;44.40;;;16.00;;
54929;SDS011;40833;53.238;6.576;2023-01-26T03:10:04;43.17;;;15.23;;
54929;SDS011;40833;53.238;6.576;2023-01-26T03:12:30;42.37;;;15.57;;
54929;SDS011;40833;53.238;6.576;2023-01-26T03:14:56;43.07;;;15.47;;
54929;SDS011;40833;53.238;6.576;2023-01-26T03:17:40;43.50;;;14.73;;
54929;SDS011;40833;53.238;6.576;2023-01-26T03:20:06;44.83;;;15.23;;
54929;SDS011;40833;53.238;6.576;2023-01-26T03:22:51;52.90;;;16.97;;
54929;SDS011;40833;53.238;6.576;2023-01-26T03:25:36;38.80;;;15.17;;
54929;SDS011;40833;53.238;6.576;2023-01-26T03:28:20;39.77;;;14.17;;
54929;SDS011;40833;53.238;6.576;2023-01-26T03:30:47;43.00;;;14.70;;
54929;SDS011;40833;53.238;6.576;2023-01-26T03:33:14;49.40;;;15.60;;
54929;SDS011;40833;53.238;6.576;2023-01-26T03:35:40;43.80;;;15.30;;
54929;SDS011;40833;53.238;6.576;2023-01-26T03:38:06;36.87;;;14.67;;
54929;SDS011;40833;53.238;6.576;2023-01-26T03:40:32;40.10;;;14.47;;
54929;SDS011;40833;53.238;6.576;2023-01-26T03:43:16;44.97;;;14.50;;
54929;SDS011;40833;53.238;6.576;2023-01-26T03:46:01;40.43;;;15.47;;
54929;SDS011;40833;53.238;6.576;2023-01-26T03:48:46;39.23;;;15.03;;
54929;SDS011;40833;53.238;6.576;2023-01-26T03:51:30;42.10;;;14.87;;
54929;SDS011;40833;53.238;6.576;2023-01-26T03:54:14;40.70;;;14.63;;
54929;SDS011;40833;53.238;6.576;2023-01-26T03:56:58;41.77;;;14.67;;
54929;SDS011;40833;53.238;6.576;2023-01-26T03:59:24;41.33;;;15.30;;
54929;SDS011;40833;53.238;6.576;2023-01-26T04:02:05;44.03;;;15.03;;
54929;SDS011;40833;53.238;6.576;2023-01-26T04:04:50;48.80;;;16.17;;
54929;SDS011;40833;53.238;6.576;2023-01-26T04:07:34;41.10;;;14.93;;
54929;SDS011;40833;53.238;6.576;2023-01-26T04:10:19;44.80;;;15.47;;
54929;SDS011;40833;53.238;6.576;2023-01-26T04:12:45;48.47;;;16.83;;
54929;SDS011;40833;53.238;6.576;2023-01-26T04:15:29;44.77;;;16.30;;
54929;SDS011;40833;53.238;6.576;2023-01-26T04:18:13;42.57;;;16.77;;
54929;SDS011;40833;53.238;6.576;2023-01-26T04:21:00;55.27;;;16.50;;
54929;SDS011;40833;53.238;6.576;2023-01-26T04:23:45;50.63;;;17.10;;
54929;SDS011;40833;53.238;6.576;2023-01-26T04:26:11;46.07;;;16.97;;
54929;SDS011;40833;53.238;6.576;2023-01-26T04:28:36;52.10;;;16.73;;
54929;SDS011;40833;53.238;6.576;2023-01-26T04:31:02;47.70;;;17.17;;
54929;SDS011;40833;53.238;6.576;2023-01-26T04:33:29;60.37;;;17.90;;
54929;SDS011;40833;53.238;6.576;2023-01-26T04:35:54;60.73;;;18.83;;
54929;SDS011;40833;53.238;6.576;2023-01-26T04:38:20;64.57;;;17.80;;
54929;SDS011;40833;53.238;6.576;2023-01-26T04:40:52;54.77;;;17.40;;
54929;SDS011;40833;53.238;6.576;2023-01-26T04:43:18;53.27;;;17.37;;
54929;SDS011;40833;53.238;6.576;2023-01-26T04:45:44;62.17;;;17.20;;
54929;SDS011;40833;53.238;6.576;2023-01-26T04:48:25;57.20;;;16.83;;
54929;SDS011;40833;53.238;6.576;2023-01-26T04:51:01;56.57;;;18.03;;
54929;SDS011;40833;53.238;6.576;2023-01-26T04:53:28;59.30;;;17.67;;
54929;SDS011;40833;53.238;6.576;2023-01-26T04:55:55;55.27;;;18.47;;
54929;SDS011;40833;53.238;6.576;2023-01-26T04:58:21;67.17;;;18.70;;
54929;SDS011;40833;53.238;6.576;2023-01-26T05:00:50;88.23;;;19.47;;
54929;SDS011;40833;53.238;6.576;2023-01-26T05:03:16;74.93;;;20.17;;
54929;SDS011;40833;53.238;6.576;2023-01-26T05:05:42;73.40;;;19.13;;
54929;SDS011;40833;53.238;6.576;2023-01-26T05:08:08;123.13;;;20.93;;
54929;SDS011;40833;53.238;6.576;2023-01-26T05:10:33;76.93;;;19.80;;
54929;SDS011;40833;53.238;6.576;2023-01-26T05:12:59;96.80;;;21.07;;
54929;SDS011;40833;53.238;6.576;2023-01-26T05:15:25;69.70;;;17.90;;
54929;SDS011;40833;53.238;6.576;2023-01-26T05:17:51;82.33;;;20.33;;
54929;SDS011;40833;53.238;6.576;2023-01-26T05:20:17;88.93;;;19.77;;
54929;SDS011;40833;53.238;6.576;2023-01-26T05:22:42;89.07;;;20.00;;
54929;SDS011;40833;53.238;6.576;2023-01-26T05:25:08;86.90;;;19.30;;
54929;SDS011;40833;53.238;6.576;2023-01-26T05:27:34;106.87;;;21.47;;
54929;SDS011;40833;53.238;6.576;2023-01-26T05:30:00;110.57;;;19.63;;
54929;SDS011;40833;53.238;6.576;2023-01-26T05:32:26;112.77;;;21.37;;
54929;SDS011;40833;53.238;6.576;2023-01-26T05:34:53;98.07;;;19.60;;
54929;SDS011;40833;53.238;6.576;2023-01-26T05:37:19;102.07;;;18.80;;
54929;SDS011;40833;53.238;6.576;2023-01-26T05:39:45;95.60;;;18.10;;
54929;SDS011;40833;53.238;6.576;2023-01-26T05:42:11;87.10;;;17.90;;
54929;SDS011;40833;53.238;6.576;2023-01-26T05:44:37;99.47;;;17.60;;
54929;SDS011;40833;53.238;6.576;2023-01-26T05:47:03;94.80;;;18.83;;
54929;SDS011;40833;53.238;6.576;2023-01-26T05:49:29;76.83;;;16.73;;
54929;SDS011;40833;53.238;6.576;2023-01-26T05:51:55;79.70;;;16.20;;
54929;SDS011;40833;53.238;6.576;2023-01-26T05:54:21;89.73;;;16.67;;
54929;SDS011;40833;53.238;6.576;2023-01-26T05:56:46;78.30;;;16.07;;
54929;SDS011;40833;53.238;6.576;2023-01-26T05:59:13;68.50;;;14.83;;
54929;SDS011;40833;53.238;6.576;2023-01-26T06:01:39;77.77;;;15.40;;
54929;SDS011;40833;53.238;6.576;2023-01-26T06:04:04;65.73;;;15.13;;
54929;SDS011;40833;53.238;6.576;2023-01-26T06:06:30;66.60;;;13.27;;
54929;SDS011;40833;53.238;6.576;2023-01-26T06:08:56;88.43;;;14.67;;
54929;SDS011;40833;53.238;6.576;2023-01-26T06:11:23;71.77;;;13.70;;
54929;SDS011;40833;53.238;6.576;2023-01-26T06:13:48;67.63;;;10.90;;
54929;SDS011;40833;53.238;6.576;2023-01-26T06:16:14;64.53;;;12.00;;
54929;SDS011;40833;53.238;6.576;2023-01-26T06:18:40;71.47;;;12.67;;
54929;SDS011;40833;53.238;6.576;2023-01-26T06:21:05;69.00;;;9.43;;
54929;SDS011;40833;53.238;6.576;2023-01-26T06:23:31;72.87;;;10.27;;
54929;SDS011;40833;53.238;6.576;2023-01-26T06:25:57;65.83;;;7.23;;
54929;SDS011;40833;53.238;6.576;2023-01-26T06:28:24;51.30;;;5.70;;
54929;SDS011;40833;53.238;6.576;2023-01-26T06:30:50;63.57;;;5.00;;
54929;SDS011;40833;53.238;6.576;2023-01-26T06:33:16;60.40;;;5.33;;
54929;SDS011;40833;53.238;6.576;2023-01-26T06:35:41;66.57;;;6.93;;
54929;SDS011;40833;53.238;6.576;2023-01-26T06:38:07;70.80;;;4.60;;
54929;SDS011;40833;53.238;6.576;2023-01-26T06:40:32;50.90;;;4.63;;
54929;SDS011;40833;53.238;6.576;2023-01-26T06:42:58;69.67;;;4.60;;
54929;SDS011;40833;53.238;6.576;2023-01-26T06:45:24;64.50;;;4.57;;
54929;SDS011;40833;53.238;6.576;2023-01-26T06:47:49;66.17;;;4.40;;
54929;SDS011;40833;53.238;6.576;2023-01-26T06:50:17;63.67;;;3.97;;
54929;SDS011;40833;53.238;6.576;2023-01-26T06:52:51;60.40;;;4.50;;
54929;SDS011;40833;53.238;6.576;2023-01-26T06:55:21;70.57;;;4.07;;
54929;SDS011;40833;53.238;6.576;2023-01-26T06:57:59;71.60;;;3.97;;
54929;SDS011;40833;53.238;6.576;2023-01-26T07:00:25;45.57;;;3.03;;
54929;SDS011;40833;53.238;6.576;2023-01-26T07:02:51;72.17;;;3.73;;
54929;SDS011;40833;53.238;6.576;2023-01-26T07:05:16;73.17;;;4.83;;
54929;SDS011;40833;53.238;6.576;2023-01-26T07:07:42;50.60;;;3.67;;
54929;SDS011;40833;53.238;6.576;2023-01-26T07:10:08;75.40;;;4.70;;
54929;SDS011;40833;53.238;6.576;2023-01-26T07:12:44;72.50;;;6.53;;
54929;SDS011;40833;53.238;6.576;2023-01-26T07:15:11;75.17;;;4.97;;
54929;SDS011;40833;53.238;6.576;2023-01-26T07:17:37;64.97;;;5.37;;
54929;SDS011;40833;53.238;6.576;2023-01-26T07:20:04;61.83;;;7.03;;
54929;SDS011;40833;53.238;6.576;2023-01-26T07:22:30;90.33;;;8.17;;
54929;SDS011;40833;53.238;6.576;2023-01-26T07:24:56;81.37;;;5.63;;
54929;SDS011;40833;53.238;6.576;2023-01-26T07:27:22;67.50;;;7.30;;
54929;SDS011;40833;53.238;6.576;2023-01-26T07:29:48;63.67;;;6.53;;
54929;SDS011;40833;53.238;6.576;2023-01-26T07:32:15;69.33;;;5.00;;
54929;SDS011;40833;53.238;6.576;2023-01-26T07:34:41;80.67;;;6.27;;
54929;SDS011;40833;53.238;6.576;2023-01-26T07:37:07;70.20;;;6.03;;
54929;SDS011;40833;53.238;6.576;2023-01-26T07:39:32;76.73;;;7.33;;
54929;SDS011;40833;53.238;6.576;2023-01-26T07:41:58;64.27;;;5.10;;
54929;SDS011;40833;53.238;6.576;2023-01-26T07:44:23;103.07;;;6.77;;
54929;SDS011;40833;53.238;6.576;2023-01-26T07:46:49;73.50;;;5.73;;
54929;SDS011;40833;53.238;6.576;2023-01-26T07:49:15;64.40;;;5.70;;
54929;SDS011;40833;53.238;6.576;2023-01-26T07:51:41;55.73;;;4.83;;
54929;SDS011;40833;53.238;6.576;2023-01-26T07:54:06;63.70;;;5.50;;
54929;SDS011;40833;53.238;6.576;2023-01-26T07:56:35;41.67;;;4.20;;
54929;SDS011;40833;53.238;6.576;2023-01-26T07:59:01;45.50;;;4.50;;
54929;SDS011;40833;53.238;6.576;2023-01-26T08:01:27;70.67;;;6.20;;
54929;SDS011;40833;53.238;6.576;2023-01-26T08:03:53;41.77;;;4.63;;
54929;SDS011;40833;53.238;6.576;2023-01-26T08:06:19;64.43;;;6.40;;
54929;SDS011;40833;53.238;6.576;2023-01-26T08:08:46;79.17;;;7.60;;
54929;SDS011;40833;53.238;6.576;2023-01-26T08:11:16;47.67;;;4.77;;
54929;SDS011;40833;53.238;6.576;2023-01-26T08:13:43;50.63;;;4.57;;
54929;SDS011;40833;53.238;6.576;2023-01-26T08:16:09;57.70;;;5.80;;
54929;SDS011;40833;53.238;6.576;2023-01-26T08:18:40;65.10;;;5.80;;
54929;SDS011;40833;53.238;6.576;2023-01-26T08:21:07;64.50;;;6.93;;
54929;SDS011;40833;53.238;6.576;2023-01-26T08:23:34;54.13;;;4.07;;
54929;SDS011;40833;53.238;6.576;2023-01-26T08:26:00;39.43;;;3.30;;
54929;SDS011;40833;53.238;6.576;2023-01-26T08:28:28;41.47;;;4.03;;
54929;SDS011;40833;53.238;6.576;2023-01-26T08:30:54;45.07;;;4.80;;
54929;SDS011;40833;53.238;6.576;2023-01-26T08:33:20;63.80;;;6.43;;
54929;SDS011;40833;53.238;6.576;2023-01-26T08:35:46;63.43;;;6.20;;
54929;SDS011;40833;53.238;6.576;2023-01-26T08:38:12;62.53;;;5.90;;
54929;SDS011;40833;53.238;6.576;2023-01-26T08:40:37;52.83;;;6.00;;
54929;SDS011;40833;53.238;6.576;2023-01-26T08:43:04;48.90;;;4.67;;
54929;SDS011;40833;53.238;6.576;2023-01-26T08:45:30;64.83;;;5.23;;
54929;SDS011;40833;53.238;6.576;2023-01-26T08:47:56;70.13;;;5.80;;
54929;SDS011;40833;53.238;6.576;2023-01-26T08:50:22;83.10;;;6.60;;
54929;SDS011;40833;53.238;6.576;2023-01-26T08:52:48;64.60;;;5.67;;
54929;SDS011;40833;53.238;6.576;2023-01-26T08:55:14;62.33;;;4.50;;
54929;SDS011;40833;53.238;6.576;2023-01-26T08:57:40;57.20;;;6.57;;
54929;SDS011;40833;53.238;6.576;2023-01-26T09:00:06;63.33;;;4.63;;
54929;SDS011;40833;53.238;6.576;2023-01-26T09:02:32;59.80;;;5.17;;
54929;SDS011;40833;53.238;6.576;2023-01-26T09:04:57;54.63;;;5.53;;
54929;SDS011;40833;53.238;6.576;2023-01-26T09:07:23;57.27;;;6.70;;
54929;SDS011;40833;53.238;6.576;2023-01-26T09:09:49;64.20;;;4.83;;
54929;SDS011;40833;53.238;6.576;2023-01-26T09:12:14;63.70;;;6.27;;
54929;SDS011;40833;53.238;6.576;2023-01-26T09:14:40;60.93;;;6.50;;
54929;SDS011;40833;53.238;6.576;2023-01-26T09:17:06;52.53;;;8.20;;
54929;SDS011;40833;53.238;6.576;2023-01-26T09:19:31;61.03;;;9.70;;
54929;SDS011;40833;53.238;6.576;2023-01-26T09:21:57;59.33;;;8.30;;
54929;SDS011;40833;53.238;6.576;2023-01-26T09:24:23;69.70;;;10.30;;
54929;SDS011;40833;53.238;6.576;2023-01-26T09:26:49;64.70;;;10.43;;
54929;SDS011;40833;53.238;6.576;2023-01-26T09:29:15;57.27;;;6.73;;
54929;SDS011;40833;53.238;6.576;2023-01-26T09:31:41;70.27;;;9.07;;
54929;SDS011;40833;53.238;6.576;2023-01-26T09:34:07;51.70;;;6.60;;
54929;SDS011;40833;53.238;6.576;2023-01-26T09:36:32;75.13;;;10.87;;
54929;SDS011;40833;53.238;6.576;2023-01-26T09:38:58;57.73;;;10.97;;
54929;SDS011;40833;53.238;6.576;2023-01-26T09:44:04;72.27;;;9.50;;
54929;SDS011;40833;53.238;6.576;2023-01-26T09:46:41;56.67;;;7.70;;
54929;SDS011;40833;53.238;6.576;2023-01-26T09:54:52;54.10;;;6.63;;
54929;SDS011;40833;53.238;6.576;2023-01-26T09:57:25;61.90;;;6.93;;
54929;SDS011;40833;53.238;6.576;2023-01-26T10:00:08;57.10;;;6.07;;
54929;SDS011;40833;53.238;6.576;2023-01-26T10:03:02;48.40;;;4.40;;
54929;SDS011;40833;53.238;6.576;2023-01-26T10:06:03;54.90;;;5.80;;
54929;SDS011;40833;53.238;6.576;2023-01-26T10:08:58;54.77;;;6.33;;
54929;SDS011;40833;53.238;6.576;2023-01-26T10:12:12;41.43;;;4.07;;
54929;SDS011;40833;53.238;6.576;2023-01-26T10:14:19;51.15;;;4.57;;
54929;SDS011;40833;53.238;6.576;2023-01-26T10:16:55;52.73;;;4.40;;
54929;SDS011;40833;53.238;6.576;2023-01-26T10:24:56;44.53;;;3.87;;
54929;SDS011;40833;53.238;6.576;2023-01-26T10:27:23;37.17;;;3.73;;
54929;SDS011;40833;53.238;6.576;2023-01-26T10:29:49;39.60;;;3.80;;
54929;SDS011;40833;53.238;6.576;2023-01-26T10:32:17;42.93;;;4.37;;
54929;SDS011;40833;53.238;6.576;2023-01-26T10:34:47;43.67;;;5.17;;
54929;SDS011;40833;53.238;6.576;2023-01-26T10:37:18;35.27;;;3.07;;
54929;SDS011;40833;53.238;6.576;2023-01-26T10:39:56;37.15;;;4.88;;
54929;SDS011;40833;53.238;6.576;2023-01-26T10:42:24;37.03;;;4.57;;
54929;SDS011;40833;53.238;6.576;2023-01-26T10:44:53;35.70;;;5.03;;
54929;SDS011;40833;53.238;6.576;2023-01-26T10:47:18;36.10;;;3.93;;
54929;SDS011;40833;53.238;6.576;2023-01-26T10:49:47;40.80;;;3.03;;
54929;SDS011;40833;53.238;6.576;2023-01-26T10:52:14;41.30;;;3.20;;
54929;SDS011;40833;53.238;6.576;2023-01-26T10:54:43;31.33;;;4.27;;
54929;SDS011;40833;53.238;6.576;2023-01-26T10:57:14;38.50;;;3.27;;
54929;SDS011;40833;53.238;6.576;2023-01-26T10:59:59;32.80;;;3.03;;
54929;SDS011;40833;53.238;6.576;2023-01-26T11:02:32;32.47;;;3.30;;
54929;SDS011;40833;53.238;6.576;2023-01-26T11:05:21;39.40;;;2.70;;
54929;SDS011;40833;53.238;6.576;2023-01-26T11:07:52;42.03;;;4.23;;
54929;SDS011;40833;53.238;6.576;2023-01-26T11:10:33;36.43;;;3.23;;
54929;SDS011;40833;53.238;6.576;2023-01-26T11:13:11;26.10;;;2.43;;
54929;SDS011;40833;53.238;6.576;2023-01-26T11:15:38;29.83;;;3.47;;
54929;SDS011;40833;53.238;6.576;2023-01-26T11:18:32;31.73;;;2.47;;
54929;SDS011;40833;53.238;6.576;2023-01-26T11:21:19;21.98;;;2.17;;
54929;SDS011;40833;53.238;6.576;2023-01-26T11:24:02;24.90;;;2.60;;
54929;SDS011;40833;53.238;6.576;2023-01-26T11:45:19;16.90;;;1.13;;
54929;SDS011;40833;53.238;6.576;2023-01-26T11:50:54;22.03;;;2.00;;
54929;SDS011;40833;53.238;6.576;2023-01-26T11:53:24;16.30;;;1.97;;
54929;SDS011;40833;53.238;6.576;2023-01-26T11:58:59;24.07;;;1.80;;
54929;SDS011;40833;53.238;6.576;2023-01-26T12:01:34;20.07;;;2.60;;
54929;SDS011;40833;53.238;6.576;2023-01-26T12:04:23;20.53;;;2.57;;
54929;SDS011;40833;53.238;6.576;2023-01-26T12:06:52;28.07;;;2.57;;
54929;SDS011;40833;53.238;6.576;2023-01-26T12:09:57;26.33;;;2.90;;
54929;SDS011;40833;53.238;6.576;2023-01-26T12:12:24;21.87;;;2.90;;
54929;SDS011;40833;53.238;6.576;2023-01-26T12:15:15;23.03;;;2.07;;
54929;SDS011;40833;53.238;6.576;2023-01-26T12:25:55;31.17;;;3.13;;
54929;SDS011;40833;53.238;6.576;2023-01-26T12:28:35;28.50;;;3.67;;
54929;SDS011;40833;53.238;6.576;2023-01-26T12:31:08;29.45;;;2.45;;
54929;SDS011;40833;53.238;6.576;2023-01-26T12:33:37;22.67;;;2.20;;
54929;SDS011;40833;53.238;6.576;2023-01-26T12:38:58;31.07;;;2.13;;
54929;SDS011;40833;53.238;6.576;2023-01-26T12:45:06;12.87;;;1.33;;
54929;SDS011;40833;53.238;6.576;2023-01-26T12:47:40;19.70;;;1.60;;
54929;SDS011;40833;53.238;6.576;2023-01-26T12:52:52;14.90;;;1.20;;
54929;SDS011;40833;53.238;6.576;2023-01-26T12:55:50;13.88;;;1.67;;
54929;SDS011;40833;53.238;6.576;2023-01-26T12:58:25;19.80;;;2.17;;
54929;SDS011;40833;53.238;6.576;2023-01-26T13:03:35;19.07;;;1.60;;
54929;SDS011;40833;53.238;6.576;2023-01-26T13:11:07;11.00;;;1.20;;
54929;SDS011;40833;53.238;6.576;2023-01-26T13:18:47;18.87;;;2.63;;
54929;SDS011;40833;53.238;6.576;2023-01-26T13:21:24;9.77;;;1.00;;
54929;SDS011;40833;53.238;6.576;2023-01-26T13:23:59;15.47;;;1.60;;
54929;SDS011;40833;53.238;6.576;2023-01-26T13:34:28;14.40;;;0.97;;
54929;SDS011;40833;53.238;6.576;2023-01-26T13:37:10;15.03;;;0.90;;
54929;SDS011;40833;53.238;6.576;2023-01-26T13:39:43;16.35;;;1.60;;
54929;SDS011;40833;53.238;6.576;2023-01-26T13:42:23;25.63;;;3.17;;
54929;SDS011;40833;53.238;6.576;2023-01-26T13:44:57;21.13;;;2.00;;
54929;SDS011;40833;53.238;6.576;2023-01-26T13:47:34;21.57;;;2.53;;
54929;SDS011;40833;53.238;6.576;2023-01-26T13:50:28;16.27;;;1.93;;
54929;SDS011;40833;53.238;6.576;2023-01-26T13:52:57;21.37;;;2.50;;
54929;SDS011;40833;53.238;6.576;2023-01-26T13:55:24;17.43;;;2.40;;
54929;SDS011;40833;53.238;6.576;2023-01-26T13:58:14;19.13;;;2.30;;
54929;SDS011;40833;53.238;6.576;2023-01-26T14:00:42;23.33;;;2.20;;
54929;SDS011;40833;53.238;6.576;2023-01-26T14:03:21;20.53;;;1.67;;
54929;SDS011;40833;53.238;6.576;2023-01-26T14:05:51;21.83;;;1.67;;
54929;SDS011;40833;53.238;6.576;2023-01-26T14:08:23;20.03;;;1.80;;
54929;SDS011;40833;53.238;6.576;2023-01-26T14:10:49;19.07;;;2.63;;
54929;SDS011;40833;53.238;6.576;2023-01-26T14:13:21;16.83;;;1.53;;
54929;SDS011;40833;53.238;6.576;2023-01-26T14:15:56;20.23;;;2.47;;
54929;SDS011;40833;53.238;6.576;2023-01-26T14:18:24;16.63;;;1.60;;
54929;SDS011;40833;53.238;6.576;2023-01-26T14:20:56;15.10;;;2.80;;
54929;SDS011;40833;53.238;6.576;2023-01-26T14:23:29;20.13;;;3.00;;
54929;SDS011;40833;53.238;6.576;2023-01-26T14:26:46;15.30;;;2.93;;
54929;SDS011;40833;53.238;6.576;2023-01-26T14:28:57;14.63;;;2.10;;
54929;SDS011;40833;53.238;6.576;2023-01-26T14:31:27;17.23;;;1.60;;
54929;SDS011;40833;53.238;6.576;2023-01-26T14:33:54;24.20;;;2.30;;
54929;SDS011;40833;53.238;6.576;2023-01-26T14:36:27;25.33;;;1.90;;
54929;SDS011;40833;53.238;6.576;2023-01-26T14:38:56;23.50;;;3.07;;
54929;SDS011;40833;53.238;6.576;2023-01-26T14:41:28;18.30;;;1.53;;
54929;SDS011;40833;53.238;6.576;2023-01-26T14:43:56;17.97;;;1.73;;
54929;SDS011;40833;53.238;6.576;2023-01-26T14:49:15;15.53;;;1.60;;
54929;SDS011;40833;53.238;6.576;2023-01-26T14:51:47;25.23;;;1.90;;
54929;SDS011;40833;53.238;6.576;2023-01-26T14:54:30;26.27;;;2.30;;
54929;SDS011;40833;53.238;6.576;2023-01-26T14:56:58;19.13;;;2.37;;
54929;SDS011;40833;53.238;6.576;2023-01-26T14:59:31;24.27;;;2.37;;
54929;SDS011;40833;53.238;6.576;2023-01-26T15:05:00;21.63;;;2.57;;
54929;SDS011;40833;53.238;6.576;2023-01-26T15:07:34;15.93;;;1.93;;
54929;SDS011;40833;53.238;6.576;2023-01-26T15:15:41;26.50;;;2.53;;
54929;SDS011;40833;53.238;6.576;2023-01-26T15:18:29;26.43;;;2.10;;
54929;SDS011;40833;53.238;6.576;2023-01-26T15:21:13;26.20;;;3.20;;
54929;SDS011;40833;53.238;6.576;2023-01-26T15:23:43;24.50;;;2.83;;
54929;SDS011;40833;53.238;6.576;2023-01-26T15:26:15;27.87;;;2.93;;
54929;SDS011;40833;53.238;6.576;2023-01-26T15:29:00;23.97;;;2.67;;
54929;SDS011;40833;53.238;6.576;2023-01-26T15:31:39;29.83;;;2.97;;
54929;SDS011;40833;53.238;6.576;2023-01-26T15:34:25;24.90;;;3.40;;
54929;SDS011;40833;53.238;6.576;2023-01-26T15:37:47;26.53;;;4.63;;
54929;SDS011;40833;53.238;6.576;2023-01-26T15:39:55;24.93;;;2.47;;
54929;SDS011;40833;53.238;6.576;2023-01-26T15:42:21;24.63;;;2.20;;
54929;SDS011;40833;53.238;6.576;2023-01-26T15:44:53;32.55;;;3.55;;
54929;SDS011;40833;53.238;6.576;2023-01-26T15:47:19;23.20;;;4.10;;
54929;SDS011;40833;53.238;6.576;2023-01-26T15:49:44;30.30;;;5.17;;
54929;SDS011;40833;53.238;6.576;2023-01-26T15:54:40;27.87;;;3.90;;
54929;SDS011;40833;53.238;6.576;2023-01-26T15:57:06;19.20;;;2.17;;
54929;SDS011;40833;53.238;6.576;2023-01-26T15:59:33;19.13;;;2.90;;
54929;SDS011;40833;53.238;6.576;2023-01-26T16:01:58;26.20;;;4.50;;
54929;SDS011;40833;53.238;6.576;2023-01-26T16:04:24;33.53;;;3.33;;
54929;SDS011;40833;53.238;6.576;2023-01-26T16:06:52;28.33;;;3.00;;
54929;SDS011;40833;53.238;6.576;2023-01-26T16:09:18;30.30;;;3.37;;
54929;SDS011;40833;53.238;6.576;2023-01-26T16:11:45;30.50;;;2.90;;
54929;SDS011;40833;53.238;6.576;2023-01-26T16:14:13;28.70;;;3.50;;
54929;SDS011;40833;53.238;6.576;2023-01-26T16:16:39;19.83;;;2.27;;
54929;SDS011;40833;53.238;6.576;2023-01-26T16:19:04;28.37;;;3.43;;
54929;SDS011;40833;53.238;6.576;2023-01-26T16:21:32;26.40;;;2.57;;
54929;SDS011;40833;53.238;6.576;2023-01-26T16:24:00;25.47;;;2.50;;
54929;SDS011;40833;53.238;6.576;2023-01-26T16:26:26;28.77;;;3.87;;
54929;SDS011;40833;53.238;6.576;2023-01-26T16:28:52;24.27;;;3.70;;